Time;durP1;ratioP1;P1;durP2;ratioP2;P2;SDS_P1;SDS_P2;PMS_P1;PMS_P2;Temp;Humidity;BMP_temperature;BMP_pressure;BME280_temperature;BME280_humidity;BME280_pressure;Samples;Min_cycle;Max_cycle;Signal;HPM_P1;HPM_P2
2021/05/13 00:00:59;;;;;;;14.80;8.83;;;;;;;15.58;80.17;99254.11;3408612;84;33460;-81
2021/05/13 00:06:01;;;;;;;14.40;9.30;;;;;;;15.57;80.20;99264.25;3405768;85;98759;-81
2021/05/13 00:11:04;;;;;;;14.07;9.43;;;;;;;15.54;80.34;99254.80;3398777;86;33010;-81
2021/05/13 00:16:06;;;;;;;14.30;9.40;;;;;;;15.29;80.46;99249.14;3398086;85;99029;-80
2021/05/13 00:21:07;;;;;;;12.47;8.55;;;;;;;15.15;80.54;99249.50;3400534;86;25758;-81
2021/05/13 00:26:08;;;;;;;16.37;10.37;;;;;;;15.09;80.55;99254.64;3396555;85;99065;-80
2021/05/13 00:31:08;;;;;;;14.70;9.77;;;;;;;15.01;80.65;99253.25;3401996;86;33212;-81
2021/05/13 00:36:09;;;;;;;17.27;10.00;;;;;;;14.83;81.55;99248.77;3388792;85;99098;-81
2021/05/13 00:41:10;;;;;;;15.07;10.60;;;;;;;14.72;81.70;99251.02;3403661;86;32950;-82
2021/05/13 00:46:11;;;;;;;16.03;11.53;;;;;;;14.65;81.77;99265.81;3397379;85;99615;-81
2021/05/13 00:51:14;;;;;;;16.63;10.73;;;;;;;14.55;81.86;99275.14;3402846;86;33531;-80
2021/05/13 00:56:15;;;;;;;18.03;11.37;;;;;;;14.42;81.97;99256.88;3391020;85;99301;-81
2021/05/13 01:01:17;;;;;;;18.43;12.30;;;;;;;14.36;82.13;99265.52;3428543;84;33440;-81
2021/05/13 01:06:18;;;;;;;18.52;11.68;;;;;;;14.29;83.09;99271.98;3468481;83;99206;-80
2021/05/13 01:11:19;;;;;;;21.40;12.83;;;;;;;14.12;83.19;99266.83;3449636;84;32991;-81
2021/05/13 01:16:25;;;;;;;23.67;13.87;;;;;;;13.97;83.36;99258.05;3435611;84;99393;-82
2021/05/13 01:21:25;;;;;;;20.43;13.53;;;;;;;13.93;83.38;99257.94;3447500;84;32876;-82
2021/05/13 01:26:26;;;;;;;21.25;13.80;;;;;;;13.87;83.50;99257.67;3442957;84;99542;-81
2021/05/13 01:31:26;;;;;;;23.60;14.80;;;;;;;13.80;83.66;99264.71;3446814;84;32998;-81
2021/05/13 01:36:27;;;;;;;20.90;12.90;;;;;;;13.71;83.81;99254.84;3445082;84;99472;-81
2021/05/13 01:41:28;;;;;;;21.13;13.50;;;;;;;13.63;84.03;99253.41;3448500;84;33031;-80
2021/05/13 01:46:29;;;;;;;23.93;15.33;;;;;;;13.55;84.44;99256.15;3448672;84;99290;-80
2021/05/13 01:51:30;;;;;;;22.27;13.85;;;;;;;13.50;84.55;99259.41;3442412;84;33339;-81
2021/05/13 01:56:31;;;;;;;22.87;14.60;;;;;;;13.47;84.63;99253.95;3436774;84;98944;-80
2021/05/13 02:01:32;;;;;;;22.15;13.95;;;;;;;13.45;84.69;99250.22;3426763;84;31609;-81
2021/05/13 02:06:33;;;;;;;18.73;11.90;;;;;;;13.39;84.95;99253.30;3411999;84;99122;-80
2021/05/13 02:11:34;;;;;;;20.07;12.40;;;;;;;13.35;85.01;99249.81;3411171;85;31776;-80
2021/05/13 02:16:34;;;;;;;21.00;14.23;;;;;;;13.32;84.81;99238.24;3412700;84;99416;-80
2021/05/13 02:21:35;;;;;;;24.10;14.90;;;;;;;13.30;85.08;99236.48;3427526;85;31688;-81
2021/05/13 02:26:36;;;;;;;22.80;14.17;;;;;;;13.28;85.56;99233.38;3418896;85;98985;-81
2021/05/13 02:31:36;;;;;;;22.40;12.73;;;;;;;13.23;85.09;99233.08;3426872;85;31609;-81
2021/05/13 02:36:37;;;;;;;25.10;15.63;;;;;;;13.18;85.04;99223.30;3419501;84;98970;-81
2021/05/13 02:41:42;;;;;;;19.20;12.43;;;;;;;13.10;85.85;99212.22;3424494;85;25914;-80
2021/05/13 02:46:40;;;;;;;23.07;14.93;;;;;;;13.05;85.56;99209.15;3424005;84;99267;-80
2021/05/13 02:51:41;;;;;;;24.20;15.10;;;;;;;13.01;85.85;99205.08;3427389;85;25876;-81
2021/05/13 02:56:42;;;;;;;22.03;12.87;;;;;;;12.96;86.47;99201.42;3420577;84;99493;-81
2021/05/13 03:01:43;;;;;;;19.60;13.53;;;;;;;12.90;85.87;99198.94;3436985;84;35741;-81
2021/05/13 03:06:44;;;;;;;23.00;14.65;;;;;;;12.90;85.70;99204.46;3464543;83;99216;-81
2021/05/13 03:11:45;;;;;;;20.87;14.57;;;;;;;12.90;85.76;99189.86;3406815;85;34873;-81
2021/05/13 03:16:46;;;;;;;21.27;13.57;;;;;;;12.86;85.94;99192.69;3431257;84;99127;-81
2021/05/13 03:21:47;;;;;;;20.08;13.10;;;;;;;12.84;85.67;99178.54;3445656;84;34879;-80
2021/05/13 03:31:49;;;;;;;25.30;13.97;;;;;;;12.79;85.51;99194.80;3447662;84;30053;-80
2021/05/13 03:36:49;;;;;;;25.17;14.58;;;;;;;12.75;86.15;99199.00;3440299;84;99080;-80
2021/05/13 03:41:50;;;;;;;24.93;15.77;;;;;;;12.70;86.57;99191.20;3451380;84;25807;-80
2021/05/13 03:46:51;;;;;;;24.73;17.83;;;;;;;12.63;86.46;99187.77;3467906;83;98928;-81
2021/05/13 03:51:51;;;;;;;26.10;17.17;;;;;;;12.59;86.47;99178.18;3453830;84;32645;-81
2021/05/13 03:56:52;;;;;;;28.10;17.20;;;;;;;12.56;86.85;99174.89;3443354;84;99248;-81
2021/05/13 04:02:10;;;;;;;25.08;16.35;;;;;;;12.55;86.96;99183.59;3442887;84;32355;-81
2021/05/13 04:07:08;;;;;;;25.97;16.48;;;;;;;12.56;86.97;99177.66;3444730;84;99263;-81
2021/05/13 04:12:09;;;;;;;22.95;15.55;;;;;;;12.57;87.01;99180.59;3447760;84;26860;-81
2021/05/13 04:17:09;;;;;;;26.00;17.13;;;;;;;12.59;86.72;99176.80;3433349;84;99364;-80
2021/05/13 04:22:12;;;;;;;26.43;17.50;;;;;;;12.66;87.34;99172.56;3440948;84;25818;-81
2021/05/13 04:27:12;;;;;;;28.67;18.43;;;;;;;12.66;87.34;99172.56;3444839;84;99165;-80
2021/05/13 04:32:13;;;;;;;27.67;17.43;;;;;;;12.70;87.62;99169.11;3446937;84;25764;-81
2021/05/13 04:37:14;;;;;;;25.97;17.50;;;;;;;12.74;87.52;99175.36;3444661;84;99195;-81
2021/05/13 04:42:15;;;;;;;28.67;18.53;;;;;;;12.80;87.50;99166.77;3447217;84;26488;-81
2021/05/13 04:47:26;;;;;;;27.80;18.70;;;;;;;12.86;87.53;99163.70;3435189;84;99119;-81
2021/05/13 04:52:28;;;;;;;32.45;21.12;;;;;;;12.94;87.92;99154.69;3443050;84;32503;-80
2021/05/13 04:57:28;;;;;;;32.20;21.82;;;;;;;13.01;88.20;99151.81;3423597;84;99307;-80
2021/05/13 05:02:29;;;;;;;31.60;20.87;;;;;;;13.10;88.27;99139.61;3453869;84;25911;-80
2021/05/13 05:07:30;;;;;;;34.10;22.77;;;;;;;13.10;88.27;99139.61;3440903;84;99210;-81
2021/05/13 05:12:31;;;;;;;33.27;22.17;;;;;;;13.18;88.89;99136.88;3447019;84;26234;-81
2021/05/13 05:17:31;;;;;;;38.00;22.20;;;;;;;13.35;88.98;99142.67;3436277;84;99360;-81
2021/05/13 05:22:33;;;;;;;33.30;23.17;;;;;;;13.65;89.09;99143.78;3452655;84;26459;-81
2021/05/13 05:27:34;;;;;;;30.60;21.77;;;;;;;14.06;89.14;99139.91;3440104;84;99316;-81
2021/05/13 05:32:35;;;;;;;31.37;19.70;;;;;;;14.57;89.06;99132.92;3444127;84;26582;-81
2021/05/13 05:37:39;;;;;;;25.62;18.12;;;;;;;15.09;88.24;99136.25;3439409;84;99500;-81
2021/05/13 05:42:39;;;;;;;22.37;16.40;;;;;;;15.71;87.36;99127.95;3491867;83;26322;-81
2021/05/13 05:47:40;;;;;;;23.93;16.87;;;;;;;16.26;86.28;99129.57;3438015;84;99372;-81
2021/05/13 05:52:40;;;;;;;22.57;16.20;;;;;;;16.76;84.48;99110.04;3442733;84;33385;-81
2021/05/13 05:57:41;;;;;;;21.20;14.30;;;;;;;17.28;82.82;99116.31;3438158;84;99256;-82
2021/05/13 06:02:42;;;;;;;18.80;13.00;;;;;;;17.59;80.73;99108.19;3419185;84;33580;-80
2021/05/13 06:07:43;;;;;;;19.07;13.50;;;;;;;17.90;78.36;99114.53;3395904;85;99107;-80
2021/05/13 06:12:44;;;;;;;19.67;13.27;;;;;;;18.19;78.48;99110.77;3397420;85;33557;-80
2021/05/13 06:17:45;;;;;;;17.93;12.30;;;;;;;18.66;76.79;99114.61;3392892;85;99255;-80
2021/05/13 06:22:47;;;;;;;16.85;11.75;;;;;;;19.07;75.37;99110.59;3391732;85;32947;-81
2021/05/13 06:27:48;;;;;;;17.60;12.45;;;;;;;19.50;74.00;99117.88;3393775;85;99007;-80
2021/05/13 06:32:49;;;;;;;17.60;11.17;;;;;;;19.85;73.02;99125.39;3400520;85;27868;-81
2021/05/13 06:37:50;;;;;;;16.63;10.93;;;;;;;20.21;72.19;99113.32;3389799;85;99074;-82
2021/05/13 06:42:51;;;;;;;16.53;11.40;;;;;;;20.62;70.30;99112.44;3403834;86;26009;-82
2021/05/13 06:47:51;;;;;;;18.30;12.93;;;;;;;20.82;67.98;99116.17;3381435;86;99144;-80
2021/05/13 06:52:52;;;;;;;18.60;11.37;;;;;;;20.91;67.61;99119.55;3348238;86;26015;-82
2021/05/13 06:57:53;;;;;;;22.17;13.70;;;;;;;21.24;67.38;99124.41;3351927;84;99298;-81
2021/05/13 07:02:53;;;;;;;15.23;11.63;;;;;;;21.46;66.54;99117.82;3359404;86;31679;-81
2021/05/13 07:07:54;;;;;;;17.27;12.88;;;;;;;21.52;66.16;99118.08;3359666;86;99384;-81
2021/05/13 07:12:56;;;;;;;16.05;12.40;;;;;;;21.36;63.60;99121.34;3364605;86;31558;-81
2021/05/13 07:17:57;;;;;;;17.82;12.47;;;;;;;21.22;64.91;99126.92;3349648;85;99225;-82
2021/05/13 07:22:58;;;;;;;18.52;15.18;;;;;;;21.33;64.92;99123.72;3336420;86;32256;-80
2021/05/13 07:28:00;;;;;;;26.65;15.83;;;;;;;21.28;64.18;99109.61;3351569;86;99308;-80
2021/05/13 07:33:01;;;;;;;27.15;17.73;;;;;;;21.20;64.94;99116.84;3349440;86;31761;-80
2021/05/13 07:38:03;;;;;;;27.30;17.75;;;;;;;21.23;64.86;99111.67;3348691;86;99155;-81
2021/05/13 07:43:05;;;;;;;27.58;20.45;;;;;;;21.17;65.10;99113.59;3352172;86;30230;-80
2021/05/13 07:48:06;;;;;;;28.52;20.97;;;;;;;21.19;65.17;99109.71;3341937;86;98999;-80
2021/05/13 07:53:07;;;;;;;30.17;21.57;;;;;;;21.40;66.09;99106.54;3352203;88;30833;-81
2021/05/13 07:58:08;;;;;;;27.58;21.95;;;;;;;21.40;66.09;99106.54;3342452;85;99156;-81
2021/05/13 08:03:09;;;;;;;26.68;20.80;;;;;;;21.36;64.24;99117.14;3369290;86;32263;-80
2021/05/13 08:08:10;;;;;;;28.17;18.35;;;;;;;21.53;65.33;99115.41;3399239;86;99307;-80
2021/05/13 08:13:10;;;;;;;27.90;18.42;;;;;;;21.84;64.51;99120.55;3399616;86;29200;-81
2021/05/13 08:18:11;;;;;;;26.82;21.37;;;;;;;22.35;64.38;99116.66;3396597;85;99542;-80
2021/05/13 08:23:12;;;;;;;28.17;21.80;;;;;;;22.66;63.32;99121.09;3399905;86;29252;-81
2021/05/13 08:28:13;;;;;;;25.27;19.60;;;;;;;23.22;62.49;99124.73;3392937;85;99178;-80
2021/05/13 08:33:14;;;;;;;26.57;20.17;;;;;;;23.85;62.01;99115.13;3403154;86;26164;-81
2021/05/13 08:38:15;;;;;;;28.17;18.02;;;;;;;24.43;60.36;99114.57;3390078;86;99283;-81
2021/05/13 08:43:21;;;;;;;25.37;19.48;;;;;;;24.69;59.50;99113.20;3397178;86;35403;-81
2021/05/13 08:48:25;;;;;;;22.90;17.27;;;;;;;25.44;58.24;99113.91;3387344;85;99422;-81
2021/05/13 08:53:28;;;;;;;19.95;15.53;;;;;;;26.22;57.42;99108.45;3390972;86;35381;-81
2021/05/13 08:58:29;;;;;;;18.23;14.13;;;;;;;26.56;55.64;99104.30;3390157;85;99604;-82
2021/05/13 09:03:33;;;;;;;19.30;13.98;;;;;;;27.12;53.79;99098.56;3391937;85;35905;-81
2021/05/13 09:08:35;;;;;;;23.03;15.10;;;;;;;27.63;51.88;99101.36;3387761;85;99556;-80
2021/05/13 09:13:36;;;;;;;18.25;13.15;;;;;;;27.95;50.84;99090.36;3402937;85;25902;-81
2021/05/13 09:18:37;;;;;;;15.30;7.85;;;;;;;28.09;49.55;99094.21;3394711;85;99334;-81
2021/05/13 09:23:37;;;;;;;14.87;7.33;;;;;;;28.32;47.71;99091.28;3397666;86;34917;-81
2021/05/13 09:28:40;;;;;;;13.43;8.30;;;;;;;28.69;44.51;99094.89;3405777;86;99102;-80
2021/05/13 09:33:42;;;;;;;13.95;7.90;;;;;;;29.21;46.40;99085.39;3390430;85;34881;-79
2021/05/13 09:38:43;;;;;;;12.47;7.95;;;;;;;29.71;46.02;99073.45;3394347;85;99124;-80
2021/05/13 09:43:44;;;;;;;13.60;7.75;;;;;;;30.55;44.94;99067.19;3405660;85;35067;-80
2021/05/13 09:48:46;;;;;;;12.70;6.55;;;;;;;30.56;41.10;99072.23;3393610;85;99106;-80
2021/05/13 09:53:51;;;;;;;14.33;7.10;;;;;;;30.56;41.71;99066.55;3392736;85;26375;-80
2021/05/13 09:58:52;;;;;;;12.60;6.00;;;;;;;30.88;42.14;99067.19;3392124;85;98837;-80
2021/05/13 10:03:55;;;;;;;12.18;6.00;;;;;;;31.07;39.80;99058.66;3403696;85;34789;-81
2021/05/13 10:08:56;;;;;;;10.90;5.65;;;;;;;30.75;39.39;99051.59;3393429;86;99174;-79
2021/05/13 10:13:57;;;;;;;13.08;5.50;;;;;;;30.76;39.53;99047.43;3403745;86;34889;-81
2021/05/13 10:19:02;;;;;;;11.10;4.90;;;;;;;30.04;37.17;99049.42;3393776;85;99256;-80
2021/05/13 10:24:04;;;;;;;11.08;4.47;;;;;;;29.91;39.13;99043.06;3387906;86;26442;-81
2021/05/13 10:29:10;;;;;;;11.12;4.47;;;;;;;30.35;38.65;99033.76;3386946;86;101735;-81
2021/05/13 10:34:11;;;;;;;10.00;4.20;;;;;;;30.73;33.07;99041.44;3347867;86;26193;-80
2021/05/13 10:39:12;;;;;;;12.85;4.70;;;;;;;30.54;34.95;99021.65;3394149;86;98969;-80
2021/05/13 10:44:14;;;;;;;10.75;4.30;;;;;;;30.49;36.67;99018.27;3398289;85;34917;-81
2021/05/13 10:49:19;;;;;;;10.00;3.60;;;;;;;30.97;36.85;99009.27;3388337;86;99217;-81
2021/05/13 10:54:25;;;;;;;7.50;3.65;;;;;;;31.41;35.42;99013.18;3400152;86;26335;-80
2021/05/13 10:59:27;;;;;;;7.90;3.25;;;;;;;31.33;33.93;99013.09;3376971;86;98682;-80
2021/05/13 11:04:29;;;;;;;7.17;2.90;;;;;;;31.29;32.43;99012.70;3407674;85;34889;-80
2021/05/13 11:09:35;;;;;;;8.63;2.77;;;;;;;30.90;31.79;99008.50;3401969;85;98759;-81
2021/05/13 11:14:41;;;;;;;7.53;3.60;;;;;;;30.33;33.06;99003.75;3360605;86;26466;-79
2021/05/13 11:19:42;;;;;;;5.97;2.80;;;;;;;30.05;32.72;99001.29;3364992;86;98979;-80
2021/05/13 11:24:43;;;;;;;7.10;3.27;;;;;;;29.79;30.76;99009.11;3402573;86;35456;-80
2021/05/13 11:29:48;;;;;;;5.28;2.85;;;;;;;30.00;33.81;99002.16;3366864;85;98793;-81
2021/05/13 11:34:49;;;;;;;6.55;2.98;;;;;;;30.66;32.28;98988.89;3369926;86;26516;-79
2021/05/13 11:39:50;;;;;;;5.62;2.83;;;;;;;30.65;32.95;98990.21;3417951;84;98765;-80
2021/05/13 11:44:56;;;;;;;7.90;3.12;;;;;;;31.11;32.37;98988.68;3433503;84;34882;-80
2021/05/13 11:49:57;;;;;;;7.55;3.10;;;;;;;30.92;32.36;98988.84;3428725;84;98820;-81
2021/05/13 11:54:58;;;;;;;7.67;3.37;;;;;;;31.10;31.86;98984.29;3427471;84;35288;-80
2021/05/13 11:59:59;;;;;;;6.17;2.90;;;;;;;30.84;33.05;98981.55;3428604;84;98821;-81
2021/05/13 12:05:05;;;;;;;7.97;3.30;;;;;;;30.75;31.60;98976.31;3427540;84;35350;-81
2021/05/13 12:10:07;;;;;;;5.95;2.85;;;;;;;29.50;31.49;98978.13;3420446;85;98774;-81
2021/05/13 12:15:12;;;;;;;11.65;3.20;;;;;;;29.08;33.95;98979.83;3421722;86;25863;-81
2021/05/13 12:20:14;;;;;;;6.30;2.67;;;;;;;29.44;34.10;98984.55;3417217;86;98726;-81
2021/05/13 12:25:15;;;;;;;7.47;3.00;;;;;;;29.76;34.64;98972.56;3361935;86;26290;-80
2021/05/13 12:30:19;;;;;;;8.70;2.92;;;;;;;29.45;33.65;98978.34;3358470;86;98773;-80
2021/05/13 12:35:23;;;;;;;6.73;2.90;;;;;;;28.82;33.14;98978.23;3366345;86;25859;-81
2021/05/13 12:40:26;;;;;;;6.13;3.00;;;;;;;28.43;32.80;98969.49;3348314;86;98822;-80
2021/05/13 12:45:27;;;;;;;5.42;2.80;;;;;;;28.05;33.68;98975.56;3392711;86;26485;-80
2021/05/13 12:50:29;;;;;;;7.00;2.70;;;;;;;27.48;31.60;98955.42;3413431;86;98578;-81
2021/05/13 12:55:35;;;;;;;5.00;2.25;;;;;;;27.48;31.60;98955.42;3418072;86;26440;-79
2021/05/13 13:00:36;;;;;;;11.33;2.42;;;;;;;26.96;33.67;98954.76;3406853;85;98759;-80
2021/05/13 13:05:37;;;;;;;6.33;2.42;;;;;;;26.80;32.84;98947.83;3421216;85;34828;-80
2021/05/13 13:10:44;;;;;;;5.25;2.47;;;;;;;26.84;32.90;98948.30;3358109;86;99077;-80
2021/05/13 13:15:55;;;;;;;7.78;2.37;;;;;;;26.76;32.08;98949.48;3371125;86;25905;-79
2021/05/13 13:20:51;;;;;;;7.42;2.12;;;;;;;27.00;34.02;98941.77;3375135;86;98575;-78
2021/05/13 13:25:56;;;;;;;5.78;2.35;;;;;;;26.85;33.14;98944.95;3425452;86;34901;-81
2021/05/13 13:31:01;;;;;;;5.50;2.00;;;;;;;27.19;34.32;98941.28;3414823;86;98200;-81
2021/05/13 13:36:04;;;;;;;5.78;2.47;;;;;;;27.02;31.33;98938.55;3416795;85;98946;-80
2021/05/13 13:41:05;;;;;;;6.53;2.25;;;;;;;27.29;34.94;98934.02;3416374;86;26170;-80
2021/05/13 13:46:06;;;;;;;4.03;2.02;;;;;;;27.66;33.50;98932.13;3419359;85;99244;-80
2021/05/13 13:51:07;;;;;;;8.18;2.67;;;;;;;27.22;33.87;98931.11;3415170;86;34825;-84
2021/05/13 13:56:07;;;;;;;7.37;2.43;;;;;;;27.06;32.72;98930.56;3401294;85;98910;-81
2021/05/13 14:01:08;;;;;;;7.10;2.47;;;;;;;26.56;34.63;98928.71;3419833;85;34969;-81
2021/05/13 14:06:09;;;;;;;5.50;2.70;;;;;;;26.76;36.80;98919.84;3421851;84;98965;-81
2021/05/13 14:11:10;;;;;;;7.08;2.02;;;;;;;26.75;35.01;98923.22;3436060;84;35370;-79
2021/05/13 14:16:15;;;;;;;5.55;1.80;;;;;;;26.26;33.88;98926.37;3429516;84;98636;-80
2021/05/13 14:21:13;;;;;;;4.97;2.08;;;;;;;25.76;33.10;98932.02;3436843;84;34837;-80
2021/05/13 14:26:14;;;;;;;8.60;2.55;;;;;;;25.63;34.59;98919.11;3434158;84;99062;-80
2021/05/13 14:31:15;;;;;;;5.58;1.72;;;;;;;25.94;35.27;98923.80;3429422;84;34841;-79
2021/05/13 14:36:15;;;;;;;7.00;1.93;;;;;;;25.99;35.09;98923.02;3425785;84;98944;-80
2021/05/13 14:41:16;;;;;;;4.42;2.00;;;;;;;25.69;35.81;98913.61;3437596;84;32542;-80
2021/05/13 14:46:17;;;;;;;7.08;1.82;;;;;;;25.45;34.38;98914.03;3425351;84;98951;-80
2021/05/13 14:51:18;;;;;;;16.30;4.92;;;;;;;25.43;35.07;98915.16;3414947;84;32484;-80
2021/05/13 14:56:19;;;;;;;6.53;2.45;;;;;;;25.44;34.86;98908.27;3423368;84;99320;-81
2021/05/13 15:01:23;;;;;;;3.10;1.62;;;;;;;25.13;34.37;98919.77;3444661;84;32454;-79
2021/05/13 15:06:22;;;;;;;4.50;1.57;;;;;;;24.87;35.00;98915.80;3430074;84;99350;-80
2021/05/13 15:11:23;;;;;;;3.72;1.35;;;;;;;24.86;36.02;98919.11;3431586;84;32929;-79
2021/05/13 15:16:24;;;;;;;14.00;3.33;;;;;;;25.01;35.80;98909.13;3430695;84;99179;-81
2021/05/13 15:21:25;;;;;;;9.05;3.00;;;;;;;24.76;34.44;98912.18;3427317;84;33328;-81
2021/05/13 15:26:26;;;;;;;12.20;3.12;;;;;;;24.54;34.66;98910.08;3419898;84;99470;-80
2021/05/13 15:31:27;;;;;;;17.85;5.30;;;;;;;24.22;34.92;98903.70;3437527;84;33583;-83
2021/05/13 15:36:28;;;;;;;44.70;13.30;;;;;;;23.83;32.24;98906.95;3423816;84;99089;-82
2021/05/13 15:41:29;;;;;;;5.05;1.32;;;;;;;23.44;31.80;98897.52;3429619;84;26878;-81
2021/05/13 15:46:29;;;;;;;3.65;1.17;;;;;;;23.42;33.20;98900.05;3418943;84;99112;-83
2021/05/13 15:51:30;;;;;;;6.60;1.55;;;;;;;23.44;32.40;98897.52;3431695;84;25891;-82
2021/05/13 15:56:32;;;;;;;9.30;2.70;;;;;;;23.43;33.89;98898.80;3424797;84;99174;-81
2021/05/13 16:01:34;;;;;;;2.70;1.13;;;;;;;23.40;33.74;98890.74;3428092;84;26467;-82
2021/05/13 16:06:34;;;;;;;4.30;1.53;;;;;;;23.18;31.41;98897.59;3422498;84;99029;-82
2021/05/13 16:11:36;;;;;;;2.07;0.77;;;;;;;22.97;30.78;98903.75;3438875;84;25941;-80
2021/05/13 16:16:37;;;;;;;3.08;0.95;;;;;;;22.82;30.75;98901.70;3415555;84;98829;-81
2021/05/13 16:21:38;;;;;;;6.53;2.07;;;;;;;22.68;31.47;98908.96;3427605;84;25903;-83
2021/05/13 16:26:40;;;;;;;4.03;1.03;;;;;;;22.37;31.11;98899.06;3426573;84;98681;-82
2021/05/13 16:31:41;;;;;;;4.77;1.37;;;;;;;22.14;31.69;98902.88;3426061;84;26493;-81
2021/05/13 16:36:42;;;;;;;3.60;0.90;;;;;;;21.97;32.37;98904.69;3421057;84;99144;-82
2021/05/13 16:41:43;;;;;;;4.53;1.80;;;;;;;21.78;32.51;98900.62;3430654;84;26643;-81
2021/05/13 16:46:45;;;;;;;2.70;1.07;;;;;;;21.67;33.18;98897.65;3432865;84;98929;-82
2021/05/13 16:51:46;;;;;;;1.97;0.90;;;;;;;21.50;34.10;98893.06;3428153;84;26172;-81
2021/05/13 16:56:47;;;;;;;3.73;1.17;;;;;;;21.41;35.27;98896.00;3427978;84;98825;-82
2021/05/13 17:01:47;;;;;;;1.70;0.70;;;;;;;21.20;34.87;98890.21;3445523;84;25735;-80
2021/05/13 17:06:48;;;;;;;1.98;0.90;;;;;;;21.03;35.10;98898.32;3428986;84;99247;-82
2021/05/13 17:11:49;;;;;;;2.87;1.00;;;;;;;20.85;35.24;98900.52;3437936;83;34121;-82
2021/05/13 17:16:50;;;;;;;3.77;1.10;;;;;;;20.68;35.77;98897.45;3432874;84;99264;-81
2021/05/13 17:21:51;;;;;;;4.90;1.20;;;;;;;20.57;37.77;98900.05;3442398;84;29145;-82
2021/05/13 17:26:52;;;;;;;4.15;1.02;;;;;;;20.53;39.34;98909.23;3415802;84;99245;-82
2021/05/13 17:31:53;;;;;;;4.30;1.47;;;;;;;20.44;40.21;98906.52;3436554;84;26505;-82
2021/05/13 17:36:54;;;;;;;10.70;5.13;;;;;;;20.37;40.99;98916.68;3435071;84;99112;-82
2021/05/13 17:41:58;;;;;;;10.63;4.37;;;;;;;20.19;41.97;98928.02;3445331;84;25847;-82
2021/05/13 17:47:00;;;;;;;10.53;5.65;;;;;;;19.86;43.72;98925.89;3428826;84;99344;-82
2021/05/13 17:52:01;;;;;;;12.50;7.78;;;;;;;19.61;46.11;98919.37;3438836;84;33583;-81
2021/05/13 17:57:02;;;;;;;17.87;10.27;;;;;;;19.40;49.03;98923.20;3355466;84;99428;-82
2021/05/13 18:02:04;;;;;;;19.53;11.97;;;;;;;19.31;51.50;98928.05;3448912;84;28194;-83
2021/05/13 18:07:05;;;;;;;18.03;12.13;;;;;;;19.17;54.03;98926.68;3419473;84;99588;-81
2021/05/13 18:12:06;;;;;;;14.67;10.17;;;;;;;19.00;55.53;98932.47;3408907;86;32013;-82
2021/05/13 18:17:07;;;;;;;17.40;11.37;;;;;;;18.83;56.53;98931.89;3423653;86;99622;-82
2021/05/13 18:22:08;;;;;;;16.43;11.77;;;;;;;18.67;58.08;98933.63;3410791;86;32260;-82
2021/05/13 18:27:08;;;;;;;17.03;12.50;;;;;;;18.55;58.99;98938.15;3413415;85;99437;-82
2021/05/13 18:32:10;;;;;;;19.83;12.77;;;;;;;18.41;60.61;98944.34;3421284;86;31631;-82
2021/05/13 18:37:11;;;;;;;20.53;13.07;;;;;;;18.23;61.71;98954.06;3408457;85;99506;-83
2021/05/13 18:42:12;;;;;;;18.83;13.40;;;;;;;18.08;62.72;98952.33;3426062;85;32749;-83
2021/05/13 18:47:13;;;;;;;16.33;11.40;;;;;;;17.94;63.21;98952.95;3413231;86;99611;-82
2021/05/13 18:52:13;;;;;;;18.50;13.13;;;;;;;17.79;64.13;98960.33;3417384;86;32440;-83
2021/05/13 18:57:14;;;;;;;18.75;13.70;;;;;;;17.63;65.39;98968.94;3422003;85;99658;-82
2021/05/13 19:02:15;;;;;;;19.77;14.90;;;;;;;17.49;65.92;98966.11;3427548;86;29882;-82
2021/05/13 19:07:16;;;;;;;22.42;14.50;;;;;;;17.38;66.74;98968.55;3416394;85;99335;-83
2021/05/13 19:12:18;;;;;;;22.43;16.23;;;;;;;17.28;67.45;98966.92;3426152;86;29535;-83
2021/05/13 19:17:21;;;;;;;26.17;16.77;;;;;;;17.17;69.39;98976.29;3409333;85;99240;-83
2021/05/13 19:22:22;;;;;;;24.92;16.77;;;;;;;17.06;69.44;98977.31;3425293;86;31736;-85
2021/05/13 19:27:23;;;;;;;25.43;15.83;;;;;;;16.95;70.67;98982.50;3408281;85;99426;-85
2021/05/13 19:37:28;;;;;;;28.50;18.20;;;;;;;16.79;71.77;98985.48;3401499;85;99513;-87
2021/05/13 19:42:29;;;;;;;34.63;19.30;;;;;;;16.68;71.44;98988.50;3417484;86;31751;-87
2021/05/13 19:47:29;;;;;;;33.63;19.90;;;;;;;16.52;72.57;98986.67;3418494;85;99369;-84
2021/05/13 19:52:30;;;;;;;38.23;21.50;;;;;;;16.38;72.86;98991.33;3424369;85;25897;-84
2021/05/13 19:57:32;;;;;;;39.27;22.47;;;;;;;16.27;72.50;98991.52;3411584;85;99295;-86
2021/05/13 20:02:56;;;;;;;35.07;20.13;;;;;;;16.15;72.89;99001.45;3427754;86;25755;-83
2021/05/13 20:07:47;;;;;;;45.47;24.40;;;;;;;16.02;73.20;98995.14;3423097;84;99367;-82
2021/05/13 20:12:38;;;;;;;43.58;25.77;;;;;;;15.90;74.13;99004.88;3437185;84;31675;-84
2021/05/13 20:17:40;;;;;;;43.23;24.40;;;;;;;15.76;76.47;99007.50;3423127;84;99657;-84
2021/05/13 20:22:43;;;;;;;43.70;25.15;;;;;;;15.65;76.29;99012.61;3436753;84;31760;-82
2021/05/13 20:27:51;;;;;;;43.83;24.72;;;;;;;15.50;76.19;99016.28;3410310;84;99546;-82
2021/05/13 20:32:50;;;;;;;38.25;23.27;;;;;;;15.39;75.78;99017.23;3431544;84;32164;-84
2021/05/13 20:37:50;;;;;;;39.73;22.55;;;;;;;15.31;76.01;99011.72;3416639;84;99422;-83
2021/05/13 20:42:56;;;;;;;43.73;25.17;;;;;;;15.24;75.95;99021.02;3442412;84;26941;-82
2021/05/13 20:47:57;;;;;;;38.55;23.77;;;;;;;15.16;76.25;99011.34;3433448;84;99456;-83
2021/05/13 20:58:11;;;;;;;41.63;23.87;;;;;;;14.96;76.31;99009.98;3424644;84;99534;-82
2021/05/13 21:03:04;;;;;;;35.83;21.80;;;;;;;14.89;76.58;99008.81;3427998;84;31690;-82
2021/05/13 21:08:18;;;;;;;41.13;22.87;;;;;;;14.75;76.78;99012.77;3428477;84;99288;-82
2021/05/13 21:13:42;;;;;;;34.23;22.82;;;;;;;14.75;76.78;99012.77;3425183;84;31652;-84
2021/05/13 21:28:18;;;;;;;45.43;25.10;;;;;;;14.48;77.68;99019.25;3448906;83;99461;-84
2021/05/13 21:33:18;;;;;;;40.00;23.45;;;;;;;14.38;78.34;99017.54;3420293;84;31702;-84
2021/05/13 21:38:19;;;;;;;42.60;24.37;;;;;;;14.27;79.28;99021.20;3418828;84;99676;-85
2021/05/13 21:43:20;;;;;;;37.93;22.50;;;;;;;14.23;79.46;99023.27;3428047;84;26364;-84
2021/05/13 21:48:27;;;;;;;35.13;21.97;;;;;;;14.20;79.66;99027.52;3429260;84;99402;-84
2021/05/13 21:53:25;;;;;;;44.70;25.05;;;;;;;14.19;80.23;99024.55;3438052;84;31749;-83
2021/05/13 21:58:26;;;;;;;33.65;21.40;;;;;;;14.20;80.69;99024.75;3422424;84;99330;-84
2021/05/13 22:03:27;;;;;;;39.37;24.93;;;;;;;14.22;80.51;99020.34;3437973;84;26907;-81
2021/05/13 22:08:29;;;;;;;38.43;24.23;;;;;;;14.25;81.31;99029.76;3462507;83;99465;-81
2021/05/13 22:13:30;;;;;;;36.55;23.35;;;;;;;14.25;81.64;99031.14;3424508;85;31639;-82
2021/05/13 22:18:35;;;;;;;38.03;23.10;;;;;;;14.27;82.10;99028.70;3435335;84;99609;-84
2021/05/13 22:23:53;;;;;;;34.63;21.77;;;;;;;14.29;82.39;99020.77;3438988;84;31699;-84
2021/05/13 22:28:48;;;;;;;35.60;21.60;;;;;;;14.31;81.95;99021.10;3413527;85;99572;-84
2021/05/13 22:33:39;;;;;;;35.23;20.82;;;;;;;14.34;82.17;99017.48;3420709;85;31823;-83
2021/05/13 22:38:40;;;;;;;35.38;21.20;;;;;;;14.39;81.68;99016.95;3421097;84;99493;-84
2021/05/13 22:43:40;;;;;;;34.47;22.43;;;;;;;14.41;83.21;99010.36;3453116;84;26175;-84
2021/05/13 22:49:45;;;;;;;33.63;21.13;;;;;;;14.42;83.06;99011.31;3428880;84;99453;-84
2021/05/13 22:53:48;;;;;;;30.17;20.20;;;;;;;14.42;83.34;99016.84;3474936;83;27467;-80
2021/05/13 22:58:46;;;;;;;33.83;21.52;;;;;;;14.42;83.25;99011.91;3406431;84;99388;-82
2021/05/13 23:03:47;;;;;;;34.17;22.50;;;;;;;14.43;83.07;99009.30;3401979;85;27168;-82
2021/05/13 23:08:49;;;;;;;30.53;19.90;;;;;;;14.43;83.08;99003.17;3440359;83;99450;-83
2021/05/13 23:18:53;;;;;;;31.77;20.35;;;;;;;14.40;83.68;99002.65;3346503;86;99346;-84
2021/05/13 23:23:55;;;;;;;32.03;21.73;;;;;;;14.33;83.20;99001.46;3397910;85;26136;-83
2021/05/13 23:28:56;;;;;;;37.15;22.85;;;;;;;14.38;82.75;99009.23;3386896;85;99376;-83
2021/05/13 23:33:58;;;;;;;33.47;21.80;;;;;;;14.40;83.00;98999.88;3400603;85;26288;-84
2021/05/13 23:38:59;;;;;;;32.85;21.70;;;;;;;14.41;82.58;98996.52;3404758;84;99677;-84
2021/05/13 23:44:00;;;;;;;35.37;21.33;;;;;;;14.38;82.64;99007.86;3387199;85;26888;-83